createdAt,value
2018-03-26T00:01:35.057Z,5.90
2018-03-26T00:04:01.643Z,5.90
2018-03-26T00:06:28.104Z,5.90
2018-03-26T00:08:54.546Z,5.90
2018-03-26T00:11:20.936Z,5.80
2018-03-26T00:13:47.435Z,5.80
2018-03-26T00:16:14.599Z,5.90
2018-03-26T00:18:41.001Z,5.90
2018-03-26T00:21:07.417Z,5.90
2018-03-26T00:23:33.785Z,5.90
2018-03-26T00:26:00.229Z,5.80
2018-03-26T00:28:26.604Z,5.80
2018-03-26T00:30:53.147Z,5.70
2018-03-26T00:33:19.543Z,5.60
2018-03-26T00:35:46.113Z,5.50
2018-03-26T00:38:12.491Z,5.50
2018-03-26T00:40:38.923Z,5.50
2018-03-26T00:43:05.366Z,5.50
2018-03-26T00:45:32.492Z,5.40
2018-03-26T00:47:58.909Z,5.40
2018-03-26T00:50:26.060Z,5.40
2018-03-26T00:52:53.238Z,5.40
2018-03-26T00:55:19.675Z,5.40
2018-03-26T00:57:46.102Z,5.30
2018-03-26T01:00:12.536Z,5.30
2018-03-26T01:02:39.011Z,5.30
2018-03-26T01:05:05.398Z,5.30
2018-03-26T01:07:32.530Z,5.20
2018-03-26T01:09:58.971Z,5.20
2018-03-26T01:12:25.366Z,5.10
2018-03-26T01:14:52.535Z,5.00
2018-03-26T01:17:19.021Z,5.00
2018-03-26T01:19:46.227Z,5.00
2018-03-26T01:22:12.672Z,5.00
2018-03-26T01:24:39.109Z,5.00
2018-03-26T01:27:05.523Z,5.10
2018-03-26T01:29:31.952Z,5.00
2018-03-26T01:31:58.525Z,5.00
2018-03-26T01:34:24.938Z,5.00
2018-03-26T01:36:51.457Z,4.90
2018-03-26T01:39:17.897Z,4.90
2018-03-26T01:41:44.405Z,4.90
2018-03-26T01:44:11.533Z,4.60
2018-03-26T01:46:38.662Z,4.60
2018-03-26T01:49:05.059Z,4.60
2018-03-26T01:51:31.523Z,4.50
2018-03-26T01:53:57.926Z,4.60
2018-03-26T01:56:24.385Z,4.60
2018-03-26T01:58:50.766Z,4.60
2018-03-26T02:01:17.887Z,4.50
2018-03-26T02:03:44.279Z,4.50
2018-03-26T02:06:10.796Z,4.50
2018-03-26T02:08:47.995Z,4.40
2018-03-26T02:11:14.451Z,4.40
2018-03-26T02:13:40.868Z,4.40
2018-03-26T02:16:08.140Z,4.40
2018-03-26T02:18:35.351Z,4.30
2018-03-26T02:21:01.730Z,4.30
2018-03-26T02:23:28.159Z,4.30
2018-03-26T02:25:54.556Z,4.30
2018-03-26T02:28:20.993Z,4.40
2018-03-26T02:30:47.410Z,4.50
2018-03-26T02:33:14.587Z,4.40
2018-03-26T02:35:41.026Z,4.40
2018-03-26T02:38:07.456Z,4.30
2018-03-26T02:40:34.646Z,4.30
2018-03-26T02:43:01.021Z,4.30
2018-03-26T02:45:27.455Z,4.30
2018-03-26T02:47:53.819Z,4.20
2018-03-26T02:50:20.964Z,4.20
2018-03-26T02:52:47.330Z,4.20
2018-03-26T02:55:13.797Z,4.30
2018-03-26T02:57:40.134Z,4.30
2018-03-26T03:00:07.621Z,4.30
2018-03-26T03:02:33.970Z,4.30
2018-03-26T03:05:00.375Z,4.40
2018-03-26T03:07:27.520Z,4.40
2018-03-26T03:09:54.644Z,4.40
2018-03-26T03:12:21.089Z,4.40
2018-03-26T03:14:47.474Z,4.50
2018-03-26T03:17:13.891Z,4.50
2018-03-26T03:19:40.324Z,4.50
2018-03-26T03:22:07.604Z,4.60
2018-03-26T03:24:33.970Z,4.60
2018-03-26T03:27:00.411Z,4.60
2018-03-26T03:29:27.553Z,4.60
2018-03-26T03:31:53.938Z,4.60
2018-03-26T03:34:20.351Z,4.60
2018-03-26T03:36:46.760Z,4.60
2018-03-26T03:39:13.934Z,4.70
2018-03-26T03:41:40.343Z,4.70
2018-03-26T03:44:07.509Z,4.80
2018-03-26T03:46:33.876Z,4.80
2018-03-26T03:49:00.301Z,4.80
2018-03-26T03:51:26.709Z,4.90
2018-03-26T03:53:53.144Z,4.90
2018-03-26T03:56:19.571Z,5.00
2018-03-26T03:58:46.007Z,5.00
2018-03-26T04:01:12.405Z,5.00
2018-03-26T04:03:38.844Z,5.10
2018-03-26T04:06:05.304Z,5.10
2018-03-26T04:08:31.800Z,5.20
2018-03-26T04:10:58.283Z,5.40
2018-03-26T04:13:24.717Z,5.40
2018-03-26T04:15:51.147Z,5.40
2018-03-26T04:18:17.658Z,5.40
2018-03-26T04:20:44.018Z,5.40
2018-03-26T04:23:10.589Z,5.50
2018-03-26T04:25:37.833Z,5.50
2018-03-26T04:28:05.038Z,5.50
2018-03-26T04:30:31.478Z,5.50
2018-03-26T04:32:58.738Z,5.70
2018-03-26T04:35:25.137Z,5.60
2018-03-26T04:37:51.659Z,5.70
2018-03-26T04:40:18.070Z,5.70
2018-03-26T04:42:44.534Z,5.70
2018-03-26T04:45:10.897Z,5.80
2018-03-26T04:47:37.339Z,5.80
2018-03-26T04:50:03.766Z,5.80
2018-03-26T04:52:30.209Z,5.80
2018-03-26T04:54:56.664Z,5.80
2018-03-26T04:57:23.134Z,5.80
2018-03-26T04:59:49.562Z,5.80
2018-03-26T05:02:15.963Z,6.00
2018-03-26T05:04:42.430Z,6.00
2018-03-26T05:07:09.630Z,6.20
2018-03-26T05:09:36.033Z,6.20
2018-03-26T05:12:02.500Z,6.20
2018-03-26T05:14:29.735Z,6.30
2018-03-26T05:16:56.189Z,6.30
2018-03-26T05:19:22.615Z,6.20
2018-03-26T05:21:49.770Z,6.20
2018-03-26T05:24:16.877Z,6.30
2018-03-26T05:26:43.341Z,6.30
2018-03-26T05:29:10.473Z,6.40
2018-03-26T05:31:37.005Z,6.40
2018-03-26T05:34:03.434Z,6.40
2018-03-26T05:36:29.913Z,6.30
2018-03-26T05:38:56.343Z,6.30
2018-03-26T05:41:22.798Z,6.40
2018-03-26T05:43:49.274Z,6.30
2018-03-26T05:46:15.675Z,6.30
2018-03-26T05:48:42.123Z,6.30
2018-03-26T05:51:08.618Z,6.30
2018-03-26T05:53:35.051Z,6.30
2018-03-26T05:56:01.457Z,6.20
2018-03-26T05:58:28.020Z,6.30
2018-03-26T06:00:54.522Z,6.30
2018-03-26T06:03:21.894Z,6.40
2018-03-26T06:05:48.301Z,6.30
2018-03-26T06:08:15.430Z,6.50
2018-03-26T06:10:41.891Z,6.50
2018-03-26T06:13:08.294Z,6.50
2018-03-26T06:15:35.507Z,6.50
2018-03-26T06:18:01.965Z,6.50
2018-03-26T06:20:28.399Z,6.50
2018-03-26T06:22:54.810Z,6.50
2018-03-26T06:25:21.292Z,6.50
2018-03-26T06:27:47.742Z,6.50
2018-03-26T06:30:14.197Z,6.50
2018-03-26T06:32:40.656Z,6.50
2018-03-26T06:35:07.094Z,6.60
2018-03-26T06:37:39.438Z,6.70
2018-03-26T06:40:05.829Z,6.80
2018-03-26T06:42:32.218Z,6.70
2018-03-26T06:44:58.653Z,6.80
2018-03-26T06:47:25.130Z,6.80
2018-03-26T06:49:51.554Z,6.80
2018-03-26T06:52:17.952Z,6.90
2018-03-26T06:54:44.346Z,6.90
2018-03-26T06:57:10.789Z,7.00
2018-03-26T06:59:37.243Z,7.00
2018-03-26T07:02:03.833Z,7.00
2018-03-26T07:04:30.258Z,7.10
2018-03-26T07:06:56.690Z,7.10
2018-03-26T07:09:23.358Z,7.10
2018-03-26T07:11:49.801Z,7.10
2018-03-26T07:14:16.306Z,7.10
2018-03-26T07:16:42.712Z,7.20
2018-03-26T07:19:09.221Z,7.30
2018-03-26T07:21:36.426Z,7.20
2018-03-26T07:24:03.576Z,7.20
2018-03-26T07:26:30.223Z,7.20
2018-03-26T07:28:56.723Z,7.20
2018-03-26T07:31:23.135Z,7.30
2018-03-26T07:33:50.271Z,7.20
2018-03-26T07:36:16.720Z,7.20
2018-03-26T07:38:43.115Z,7.30
2018-03-26T07:41:10.343Z,7.50
2018-03-26T07:43:36.741Z,7.50
2018-03-26T07:46:03.142Z,7.60
2018-03-26T07:48:30.521Z,7.50
2018-03-26T07:50:57.671Z,7.50
2018-03-26T07:53:24.182Z,7.60
2018-03-26T07:55:51.365Z,7.50
2018-03-26T07:58:17.788Z,7.50
2018-03-26T08:00:44.211Z,7.60
2018-03-26T08:03:10.635Z,7.60
2018-03-26T08:05:37.805Z,7.50
2018-03-26T08:08:04.287Z,7.50
2018-03-26T08:10:30.687Z,7.40
2018-03-26T08:12:57.096Z,7.40
2018-03-26T08:15:23.487Z,7.50
2018-03-26T08:17:50.915Z,7.50
2018-03-26T08:20:17.468Z,7.50
2018-03-26T08:22:43.945Z,7.60
2018-03-26T08:25:10.350Z,7.70
2018-03-26T08:27:36.682Z,7.70
2018-03-26T08:30:03.430Z,7.40
2018-03-26T08:32:29.827Z,7.50
2018-03-26T08:34:56.288Z,7.50
2018-03-26T08:37:23.393Z,7.50
2018-03-26T08:39:50.544Z,7.60
2018-03-26T08:42:16.937Z,7.60
2018-03-26T08:44:43.360Z,7.70
2018-03-26T08:47:10.465Z,8.10
2018-03-26T08:49:37.044Z,8.00
2018-03-26T08:52:03.454Z,8.10
2018-03-26T08:54:30.571Z,8.00
2018-03-26T08:56:56.985Z,8.00
2018-03-26T08:59:23.520Z,8.00
2018-03-26T09:01:50.741Z,8.20
2018-03-26T09:04:17.178Z,8.10
2018-03-26T09:06:43.545Z,8.30
2018-03-26T09:09:10.002Z,8.20
2018-03-26T09:11:36.430Z,8.10
2018-03-26T09:14:02.958Z,8.10
2018-03-26T09:16:29.348Z,8.20
2018-03-26T09:18:55.732Z,8.30
2018-03-26T09:21:22.169Z,8.40
2018-03-26T09:23:49.287Z,8.70
2018-03-26T09:26:15.771Z,8.70
2018-03-26T09:28:42.926Z,8.50
2018-03-26T09:31:09.349Z,8.50
2018-03-26T09:33:35.765Z,8.60
2018-03-26T09:36:03.040Z,8.70
2018-03-26T09:38:29.493Z,8.60
2018-03-26T09:40:55.888Z,8.80
2018-03-26T09:43:23.091Z,8.60
2018-03-26T09:45:49.571Z,8.60
2018-03-26T09:48:16.722Z,8.80
2018-03-26T09:50:43.890Z,9.00
2018-03-26T09:53:10.279Z,9.00
2018-03-26T09:55:36.682Z,9.00
2018-03-26T09:58:23.729Z,9.20
2018-03-26T10:00:50.484Z,9.30
2018-03-26T10:03:17.674Z,9.00
2018-03-26T10:05:44.150Z,9.00
2018-03-26T10:08:10.537Z,9.10
2018-03-26T10:10:37.027Z,8.90
2018-03-26T10:13:03.444Z,8.90
2018-03-26T10:15:29.876Z,9.00
2018-03-26T10:17:57.008Z,9.00
2018-03-26T10:20:24.194Z,9.10
2018-03-26T10:22:50.620Z,9.10
2018-03-26T10:25:17.077Z,9.00
2018-03-26T10:27:43.499Z,9.30
2018-03-26T10:30:10.028Z,9.10
2018-03-26T10:32:36.478Z,9.10
2018-03-26T10:35:02.988Z,9.20
2018-03-26T10:37:30.162Z,9.00
2018-03-26T10:39:56.599Z,9.00
2018-03-26T10:42:23.013Z,9.00
2018-03-26T10:44:49.402Z,9.10
2018-03-26T10:47:15.878Z,8.90
2018-03-26T10:49:42.254Z,9.00
2018-03-26T10:52:08.700Z,9.10
2018-03-26T10:54:35.104Z,9.30
2018-03-26T10:57:02.322Z,9.70
2018-03-26T10:59:28.726Z,9.70
2018-03-26T11:01:55.169Z,9.50
2018-03-26T11:04:21.603Z,9.20
2018-03-26T11:06:48.014Z,9.40
2018-03-26T11:09:14.459Z,9.30
2018-03-26T11:11:41.611Z,9.50
2018-03-26T11:14:08.059Z,9.50
2018-03-26T11:16:34.461Z,9.40
2018-03-26T11:19:00.904Z,9.30
2018-03-26T11:21:27.934Z,9.20
2018-03-26T11:23:55.093Z,9.10
2018-03-26T11:26:22.267Z,9.20
2018-03-26T11:28:48.662Z,9.10
2018-03-26T11:31:15.111Z,9.20
2018-03-26T11:33:41.507Z,9.10
2018-03-26T11:36:07.942Z,9.20
2018-03-26T11:38:34.328Z,9.20
2018-03-26T11:41:00.752Z,9.30
2018-03-26T11:43:27.173Z,9.20
2018-03-26T11:45:53.598Z,9.10
2018-03-26T11:48:20.008Z,9.40
2018-03-26T11:50:47.158Z,9.30
2018-03-26T11:53:13.557Z,9.30
2018-03-26T11:55:40.257Z,9.20
2018-03-26T11:58:06.777Z,9.40
2018-03-26T12:00:33.220Z,9.80
2018-03-26T12:02:59.656Z,9.70
2018-03-26T12:05:26.135Z,9.50
2018-03-26T12:07:52.515Z,9.50
2018-03-26T12:10:18.992Z,9.50
2018-03-26T12:12:45.389Z,9.50
2018-03-26T12:15:11.817Z,9.60
2018-03-26T12:17:38.250Z,9.70
2018-03-26T12:20:23.048Z,9.70
2018-03-26T12:22:49.517Z,9.60
2018-03-26T12:25:16.815Z,9.80
2018-03-26T12:30:51.410Z,9.60
2018-03-26T12:33:17.883Z,9.60
2018-03-26T12:35:58.554Z,9.70
2018-03-26T12:38:24.952Z,10.00
2018-03-26T12:40:55.319Z,9.70
2018-03-26T12:43:21.769Z,9.60
2018-03-26T12:46:06.624Z,9.60
2018-03-26T12:48:33.098Z,9.80
2018-03-26T12:51:18.756Z,10.20
2018-03-26T12:53:45.196Z,10.20
2018-03-26T12:56:11.658Z,10.10
2018-03-26T12:58:49.073Z,9.90
2018-03-26T13:01:33.923Z,10.30
2018-03-26T13:04:00.366Z,10.50
2018-03-26T13:06:26.808Z,10.20
2018-03-26T13:08:53.181Z,10.50
2018-03-26T13:11:20.331Z,10.40
2018-03-26T13:13:46.855Z,10.40
2018-03-26T13:16:13.324Z,10.50
2018-03-26T13:18:39.699Z,10.80
2018-03-26T13:21:06.184Z,10.40
2018-03-26T13:23:32.572Z,10.50
2018-03-26T13:25:59.074Z,10.50
2018-03-26T13:28:25.658Z,10.10
2018-03-26T13:30:52.107Z,10.30
2018-03-26T13:33:18.514Z,10.70
2018-03-26T13:35:44.961Z,10.50
2018-03-26T13:38:11.384Z,10.30
2018-03-26T13:40:38.536Z,10.30
2018-03-26T13:43:05.953Z,10.20
2018-03-26T13:45:32.393Z,10.20
2018-03-26T13:47:58.846Z,10.10
2018-03-26T13:50:25.305Z,9.80
2018-03-26T13:52:51.800Z,9.90
2018-03-26T13:55:18.223Z,10.00
2018-03-26T13:57:44.674Z,10.00
2018-03-26T14:00:11.075Z,10.10
2018-03-26T14:02:38.312Z,9.80
2018-03-26T14:05:04.726Z,9.70
2018-03-26T14:07:31.121Z,9.80
2018-03-26T14:10:16.879Z,10.00
2018-03-26T14:13:01.644Z,10.00
2018-03-26T14:15:46.334Z,9.80
2018-03-26T14:18:12.803Z,9.50
2018-03-26T14:20:39.247Z,9.30
2018-03-26T14:23:05.692Z,9.10
2018-03-26T14:25:32.161Z,9.20
2018-03-26T14:27:59.319Z,9.40
2018-03-26T14:30:26.169Z,9.40
2018-03-26T14:32:52.575Z,9.40
2018-03-26T14:38:24.028Z,9.10
2018-03-26T14:40:50.446Z,9.10
2018-03-26T14:43:16.877Z,9.20
2018-03-26T14:45:43.285Z,9.20
2018-03-26T14:48:09.716Z,9.10
2018-03-26T14:50:36.155Z,9.20
2018-03-26T14:53:02.665Z,9.20
2018-03-26T14:55:29.131Z,9.30
2018-03-26T14:57:55.586Z,9.30
2018-03-26T15:00:22.047Z,9.20
2018-03-26T15:02:50.495Z,9.20
2018-03-26T15:05:16.882Z,9.20
2018-03-26T15:07:43.350Z,9.30
2018-03-26T15:10:09.783Z,9.10
2018-03-26T15:12:36.214Z,9.10
2018-03-26T15:15:02.732Z,9.10
2018-03-26T15:17:29.149Z,9.10
2018-03-26T15:19:55.570Z,9.10
2018-03-26T15:22:21.935Z,9.20
2018-03-26T15:24:48.375Z,9.20
2018-03-26T15:27:16.197Z,9.10
2018-03-26T15:29:43.313Z,9.10
2018-03-26T15:32:10.466Z,9.20
2018-03-26T15:34:37.623Z,9.20
2018-03-26T15:37:04.075Z,9.20
2018-03-26T15:39:30.538Z,9.10
2018-03-26T15:41:56.954Z,9.00
2018-03-26T15:44:23.335Z,9.00
2018-03-26T15:46:50.507Z,9.30
2018-03-26T15:49:16.921Z,9.30
2018-03-26T15:51:44.105Z,9.30
2018-03-26T15:54:10.574Z,9.30
2018-03-26T15:56:37.031Z,9.30
2018-03-26T15:59:03.650Z,9.30
2018-03-26T16:01:30.087Z,9.40
2018-03-26T16:03:56.568Z,9.40
2018-03-26T16:06:22.971Z,9.20
2018-03-26T16:08:49.385Z,9.30
2018-03-26T16:11:15.770Z,9.20
2018-03-26T16:13:42.222Z,9.10
2018-03-26T16:16:08.699Z,9.10
2018-03-26T16:18:35.196Z,8.80
2018-03-26T16:21:01.710Z,8.90
2018-03-26T16:23:28.098Z,9.00
2018-03-26T16:25:55.222Z,9.10
2018-03-26T16:28:21.595Z,9.00
2018-03-26T16:30:48.802Z,9.10
2018-03-26T16:33:15.242Z,9.10
2018-03-26T16:35:41.750Z,9.00
2018-03-26T16:38:08.156Z,9.00
2018-03-26T16:40:34.570Z,8.80
2018-03-26T16:43:04.923Z,8.80
2018-03-26T16:45:31.434Z,8.80
2018-03-26T16:47:57.860Z,8.70
2018-03-26T16:50:24.331Z,8.70
2018-03-26T16:52:50.749Z,8.80
2018-03-26T16:55:17.211Z,8.90
2018-03-26T16:57:43.630Z,9.00
2018-03-26T17:00:10.090Z,8.80
2018-03-26T17:02:37.274Z,8.80
2018-03-26T17:05:03.708Z,8.80
2018-03-26T17:07:30.220Z,8.80
2018-03-26T17:09:56.649Z,8.80
2018-03-26T17:12:23.091Z,8.80
2018-03-26T17:14:49.564Z,8.80
2018-03-26T17:17:16.775Z,8.60
2018-03-26T17:19:43.225Z,8.60
2018-03-26T17:22:10.432Z,8.60
2018-03-26T17:24:37.702Z,8.60
2018-03-26T17:27:04.131Z,8.50
2018-03-26T17:29:30.578Z,8.60
2018-03-26T17:31:57.821Z,8.50
2018-03-26T17:34:25.096Z,8.60
2018-03-26T17:36:51.563Z,8.50
2018-03-26T17:39:18.073Z,8.60
2018-03-26T17:41:44.532Z,8.50
2018-03-26T17:44:11.686Z,8.50
2018-03-26T17:46:38.245Z,8.50
2018-03-26T17:49:04.686Z,8.60
2018-03-26T17:51:31.917Z,8.30
2018-03-26T17:53:58.392Z,8.30
2018-03-26T17:56:24.846Z,8.30
2018-03-26T17:58:51.314Z,8.30
2018-03-26T18:01:17.804Z,8.30
2018-03-26T18:03:44.278Z,8.30
2018-03-26T18:06:11.505Z,8.20
2018-03-26T18:08:38.721Z,8.20
2018-03-26T18:11:05.263Z,8.20
2018-03-26T18:13:31.826Z,8.20
2018-03-26T18:15:58.636Z,8.20
2018-03-26T18:18:25.101Z,8.20
2018-03-26T18:20:51.552Z,8.20
2018-03-26T18:23:18.750Z,8.20
2018-03-26T18:25:45.258Z,8.20
2018-03-26T18:28:11.654Z,8.10
2018-03-26T18:30:39.005Z,8.20
2018-03-26T18:33:05.478Z,8.20
2018-03-26T18:35:31.997Z,8.20
2018-03-26T18:37:58.443Z,8.30
2018-03-26T18:40:24.877Z,8.30
2018-03-26T18:42:52.924Z,8.30
2018-03-26T18:45:19.412Z,8.20
2018-03-26T18:47:47.207Z,8.20
2018-03-26T18:50:13.662Z,8.10
2018-03-26T18:52:40.136Z,8.10
2018-03-26T18:55:06.593Z,8.00
2018-03-26T18:57:33.132Z,7.90
2018-03-26T18:59:59.573Z,7.80
2018-03-26T19:02:26.797Z,7.60
2018-03-26T19:04:53.250Z,7.60
2018-03-26T19:07:20.536Z,7.40
2018-03-26T19:09:47.165Z,7.40
2018-03-26T19:12:13.732Z,7.30
2018-03-26T19:14:41.022Z,7.40
2018-03-26T19:17:08.324Z,7.50
2018-03-26T19:19:34.852Z,7.50
2018-03-26T19:22:01.389Z,7.50
2018-03-26T19:24:27.853Z,7.40
2018-03-26T19:26:54.392Z,7.40
2018-03-26T19:29:20.971Z,7.30
2018-03-26T19:31:47.554Z,7.30
2018-03-26T19:34:14.070Z,7.30
2018-03-26T19:36:40.533Z,7.30
2018-03-26T19:39:07.913Z,7.40
2018-03-26T19:41:34.421Z,7.40
2018-03-26T19:44:10.951Z,7.40
2018-03-26T19:46:37.513Z,7.40
2018-03-26T19:49:04.133Z,7.30
2018-03-26T19:51:30.599Z,7.40
2018-03-26T19:53:57.801Z,7.30
2018-03-26T19:56:24.327Z,7.30
2018-03-26T19:58:50.816Z,7.30
2018-03-26T20:01:17.224Z,7.40
2018-03-26T20:03:43.707Z,7.40
2018-03-26T20:06:10.241Z,7.40
2018-03-26T20:08:36.881Z,7.30
2018-03-26T20:11:03.400Z,7.30
2018-03-26T20:13:30.552Z,7.30
2018-03-26T20:15:57.076Z,7.20
2018-03-26T20:18:24.302Z,7.30
2018-03-26T20:20:50.817Z,7.30
2018-03-26T20:23:17.383Z,7.20
2018-03-26T20:25:43.862Z,7.10
2018-03-26T20:28:10.426Z,7.00
2018-03-26T20:30:37.007Z,7.00
2018-03-26T20:33:04.185Z,7.00
2018-03-26T20:35:30.636Z,7.00
2018-03-26T20:37:57.052Z,7.00
2018-03-26T20:40:23.492Z,7.10
2018-03-26T20:42:49.920Z,7.10
2018-03-26T20:45:16.458Z,7.10
2018-03-26T20:47:42.919Z,7.10
2018-03-26T20:50:10.140Z,7.10
2018-03-26T20:52:36.684Z,7.10
2018-03-26T20:55:03.226Z,7.10
2018-03-26T20:57:29.767Z,7.00
2018-03-26T20:59:56.295Z,7.00
2018-03-26T21:02:22.872Z,7.00
2018-03-26T21:04:49.283Z,7.00
2018-03-26T21:07:16.615Z,7.20
2018-03-26T21:09:43.916Z,7.20
2018-03-26T21:12:10.433Z,7.20
2018-03-26T21:14:36.954Z,7.20
2018-03-26T21:17:03.512Z,7.20
2018-03-26T21:19:29.939Z,7.20
2018-03-26T21:21:56.511Z,7.20
2018-03-26T21:24:22.963Z,7.20
2018-03-26T21:26:49.473Z,7.20
2018-03-26T21:29:15.895Z,7.10
2018-03-26T21:31:42.520Z,7.10
2018-03-26T21:34:09.003Z,7.20
2018-03-26T21:36:35.560Z,7.20
2018-03-26T21:39:02.105Z,7.20
2018-03-26T21:41:28.627Z,7.20
2018-03-26T21:43:55.176Z,7.30
2018-03-26T21:46:22.318Z,7.30
2018-03-26T21:48:48.786Z,7.30
2018-03-26T21:51:15.194Z,7.40
2018-03-26T21:53:41.681Z,7.40
2018-03-26T21:56:08.117Z,7.40
2018-03-26T21:58:34.572Z,7.40
2018-03-26T22:01:01.033Z,7.30
2018-03-26T22:03:27.488Z,7.20
2018-03-26T22:05:53.915Z,7.10
2018-03-26T22:08:20.330Z,7.10
2018-03-26T22:10:46.743Z,7.10
2018-03-26T22:13:13.202Z,7.20
2018-03-26T22:15:39.697Z,7.20
2018-03-26T22:18:06.913Z,7.00
2018-03-26T22:20:33.379Z,7.00
2018-03-26T22:23:00.564Z,7.00
2018-03-26T22:25:26.978Z,6.90
2018-03-26T22:27:53.437Z,6.90
2018-03-26T22:30:19.837Z,6.90
2018-03-26T22:32:47.114Z,7.00
2018-03-26T22:35:13.522Z,7.00
2018-03-26T22:37:40.675Z,7.00
2018-03-26T22:40:07.831Z,7.00
2018-03-26T22:42:34.259Z,7.00
2018-03-26T22:45:00.706Z,6.90
2018-03-26T22:47:27.072Z,6.90
2018-03-26T22:49:53.459Z,6.90
2018-03-26T22:52:19.930Z,6.80
2018-03-26T22:54:46.276Z,6.90
2018-03-26T22:57:12.707Z,6.80
2018-03-26T22:59:39.843Z,6.80
2018-03-26T23:02:06.260Z,6.80
2018-03-26T23:04:32.705Z,6.40
2018-03-26T23:06:59.047Z,6.10
2018-03-26T23:09:25.463Z,5.90
2018-03-26T23:11:51.833Z,5.80
2018-03-26T23:14:18.247Z,5.80
2018-03-26T23:16:44.654Z,6.00
2018-03-26T23:19:11.116Z,6.00
2018-03-26T23:21:37.525Z,6.10
2018-03-26T23:24:03.934Z,6.20
2018-03-26T23:26:30.296Z,6.30
2018-03-26T23:28:56.736Z,6.30
2018-03-26T23:31:23.210Z,6.40
2018-03-26T23:33:49.628Z,6.20
2018-03-26T23:36:16.163Z,6.20
2018-03-26T23:38:42.643Z,6.20
2018-03-26T23:41:09.078Z,6.30
2018-03-26T23:43:35.513Z,6.30
2018-03-26T23:46:01.936Z,6.40
2018-03-26T23:48:28.314Z,6.40
2018-03-26T23:50:54.770Z,6.50
2018-03-26T23:53:21.183Z,6.50
2018-03-26T23:55:47.583Z,6.50
2018-03-26T23:58:14.002Z,6.60
